createdAt,value
2022-08-20T00:00:02.963Z,99307.40
2022-08-20T00:00:12.933Z,99307.73
2022-08-20T00:00:22.884Z,99305.22
2022-08-20T00:00:32.895Z,99305.74
2022-08-20T00:00:42.934Z,99306.22
2022-08-20T00:00:52.962Z,99306.75
2022-08-20T00:01:02.898Z,99305.13
2022-08-20T00:01:12.916Z,99304.72
2022-08-20T00:01:23.073Z,99305.56
2022-08-20T00:01:32.994Z,99304.38
2022-08-20T00:01:42.947Z,99304.61
2022-08-20T00:01:53.000Z,99304.77
2022-08-20T00:02:02.928Z,99307.47
2022-08-20T00:02:13.041Z,99300.23
2022-08-20T00:02:22.908Z,99301.50
2022-08-20T00:02:32.946Z,99302.31
2022-08-20T00:02:42.894Z,99301.67
2022-08-20T00:02:52.970Z,99302.09
2022-08-20T00:03:02.933Z,99303.33
2022-08-20T00:03:12.860Z,99299.82
2022-08-20T00:03:25.596Z,99298.37
2022-08-20T00:03:32.853Z,99298.45
2022-08-20T00:03:44.888Z,99297.05
2022-08-20T00:03:53.331Z,99303.94
2022-08-20T00:04:02.881Z,99302.98
2022-08-20T00:04:12.966Z,99298.22
2022-08-20T00:04:22.908Z,99301.08
2022-08-20T00:04:32.918Z,99297.61
2022-08-20T00:04:42.918Z,99294.00
2022-08-20T00:04:52.888Z,99295.77
2022-08-20T00:05:02.904Z,99299.12
2022-08-20T00:05:12.960Z,99295.94
2022-08-20T00:05:22.950Z,99299.80
2022-08-20T00:05:32.885Z,99297.78
2022-08-20T00:05:42.923Z,99299.23
2022-08-20T00:05:52.950Z,99298.14
2022-08-20T00:06:02.861Z,99298.95
2022-08-20T00:06:12.903Z,99294.40
2022-08-20T00:06:22.871Z,99298.28
2022-08-20T00:06:32.893Z,99298.06
2022-08-20T00:06:42.889Z,99295.27
2022-08-20T00:06:52.960Z,99299.45
2022-08-20T00:07:02.881Z,99300.72
2022-08-20T00:07:12.836Z,99297.19
2022-08-20T00:07:22.841Z,99299.80
2022-08-20T00:07:32.965Z,99299.20
2022-08-20T00:07:42.917Z,99297.00
2022-08-20T00:07:52.948Z,99298.02
2022-08-20T00:08:02.844Z,99296.16
2022-08-20T00:08:12.969Z,99297.11
2022-08-20T00:08:22.913Z,99297.17
2022-08-20T00:08:32.891Z,99297.42
2022-08-20T00:08:42.883Z,99296.16
2022-08-20T00:08:52.954Z,99298.27
2022-08-20T00:09:02.944Z,99299.30
2022-08-20T00:09:12.961Z,99301.14
2022-08-20T00:09:22.899Z,99302.05
2022-08-20T00:09:32.920Z,99299.12
2022-08-20T00:09:42.976Z,99297.67
2022-08-20T00:09:52.888Z,99302.48
2022-08-20T00:10:02.917Z,99299.27
2022-08-20T00:10:12.923Z,99296.39
2022-08-20T00:10:22.939Z,99294.48
2022-08-20T00:10:32.936Z,99298.23
2022-08-20T00:10:42.945Z,99298.41
2022-08-20T00:10:55.584Z,99296.23
2022-08-20T00:11:02.944Z,99296.91
2022-08-20T00:11:12.937Z,99295.55
2022-08-20T00:11:22.982Z,99294.72
2022-08-20T00:11:32.911Z,99295.05
2022-08-20T00:11:42.867Z,99293.70
2022-08-20T00:11:52.947Z,99296.54
2022-08-20T00:12:02.841Z,99294.69
2022-08-20T00:12:12.934Z,99292.17
2022-08-20T00:12:22.955Z,99292.77
2022-08-20T00:12:32.846Z,99296.20
2022-08-20T00:12:42.866Z,99294.11
2022-08-20T00:12:52.837Z,99297.05
2022-08-20T00:13:02.873Z,99295.20
2022-08-20T00:13:13.975Z,99295.03
2022-08-20T00:13:22.952Z,99295.26
2022-08-20T00:13:32.966Z,99295.51
2022-08-20T00:13:42.974Z,99295.95
2022-08-20T00:13:52.843Z,99295.70
2022-08-20T00:14:02.909Z,99294.83
2022-08-20T00:14:12.930Z,99299.91
2022-08-20T00:14:22.920Z,99294.16
2022-08-20T00:14:33.931Z,99293.77
2022-08-20T00:14:42.862Z,99297.05
2022-08-20T00:14:52.963Z,99298.64
2022-08-20T00:15:02.875Z,99297.88
2022-08-20T00:15:12.920Z,99297.52
2022-08-20T00:15:22.862Z,99294.50
2022-08-20T00:15:32.885Z,99298.55
2022-08-20T00:15:42.922Z,99294.08
2022-08-20T00:15:52.947Z,99301.84
2022-08-20T00:16:02.913Z,99300.12
2022-08-20T00:16:12.877Z,99298.53
2022-08-20T00:16:22.945Z,99299.37
2022-08-20T00:16:32.942Z,99300.72
2022-08-20T00:16:42.932Z,99304.75
2022-08-20T00:16:52.948Z,99301.30
2022-08-20T00:17:02.853Z,99303.73
2022-08-20T00:17:12.917Z,99299.38
2022-08-20T00:17:22.926Z,99303.41
2022-08-20T00:17:32.907Z,99306.27
2022-08-20T00:17:42.918Z,99301.22
2022-08-20T00:17:52.961Z,99307.52
2022-08-20T00:18:02.997Z,99299.49
2022-08-20T00:18:12.964Z,99303.41
2022-08-20T00:18:22.860Z,99300.55
2022-08-20T00:18:32.932Z,99306.27
2022-08-20T00:18:42.844Z,99303.48
2022-08-20T00:18:52.849Z,99301.73
2022-08-20T00:19:02.868Z,99306.09
2022-08-20T00:19:12.917Z,99304.22
2022-08-20T00:19:22.864Z,99306.44
2022-08-20T00:19:32.887Z,99307.19
2022-08-20T00:19:42.849Z,99308.27
2022-08-20T00:19:52.973Z,99304.39
2022-08-20T00:20:02.836Z,99308.87
2022-08-20T00:20:12.878Z,99311.80
2022-08-20T00:20:22.916Z,99307.61
2022-08-20T00:20:32.884Z,99311.22
2022-08-20T00:20:42.894Z,99312.48
2022-08-20T00:20:52.943Z,99314.41
2022-08-20T00:21:02.956Z,99310.80
2022-08-20T00:21:12.872Z,99314.50
2022-08-20T00:21:23.360Z,99314.67
2022-08-20T00:21:32.880Z,99313.31
2022-08-20T00:21:42.843Z,99313.32
2022-08-20T00:21:52.941Z,99314.41
2022-08-20T00:22:02.907Z,99314.16
2022-08-20T00:22:12.915Z,99311.64
2022-08-20T00:22:22.919Z,99311.55
2022-08-20T00:22:32.863Z,99312.73
2022-08-20T00:22:42.911Z,99307.84
2022-08-20T00:22:52.931Z,99318.36
2022-08-20T00:23:06.194Z,99312.70
2022-08-20T00:23:12.877Z,99311.48
2022-08-20T00:23:22.914Z,99316.34
2022-08-20T00:23:32.947Z,99311.98
2022-08-20T00:23:42.958Z,99314.67
2022-08-20T00:23:52.965Z,99315.34
2022-08-20T00:24:02.929Z,99315.51
2022-08-20T00:24:12.952Z,99315.66
2022-08-20T00:24:22.944Z,99320.21
2022-08-20T00:24:32.885Z,99316.30
2022-08-20T00:24:42.874Z,99318.95
2022-08-20T00:24:52.914Z,99318.67
2022-08-20T00:25:02.916Z,99320.55
2022-08-20T00:25:12.925Z,99314.64
2022-08-20T00:25:22.866Z,99316.02
2022-08-20T00:25:32.886Z,99315.14
2022-08-20T00:25:42.932Z,99312.60
2022-08-20T00:25:52.963Z,99316.99
2022-08-20T00:26:02.849Z,99316.74
2022-08-20T00:26:12.887Z,99315.91
2022-08-20T00:26:22.888Z,99314.62
2022-08-20T00:26:32.910Z,99314.95
2022-08-20T00:26:51.981Z,99317.16
2022-08-20T00:26:53.066Z,99315.12
2022-08-20T00:27:02.872Z,99312.35
2022-08-20T00:27:12.932Z,99312.62
2022-08-20T00:27:22.904Z,99319.84
2022-08-20T00:27:32.843Z,99314.62
2022-08-20T00:27:42.899Z,99315.04
2022-08-20T00:27:52.969Z,99317.14
2022-08-20T00:28:02.991Z,99312.45
2022-08-20T00:28:12.939Z,99313.11
2022-08-20T00:28:22.945Z,99314.45
2022-08-20T00:28:32.952Z,99314.62
2022-08-20T00:28:42.888Z,99316.47
2022-08-20T00:28:52.967Z,99317.70
2022-08-20T00:29:02.876Z,99312.33
2022-08-20T00:29:12.866Z,99312.91
2022-08-20T00:29:22.838Z,99315.77
2022-08-20T00:29:32.895Z,99315.69
2022-08-20T00:29:42.903Z,99317.79
2022-08-20T00:29:52.942Z,99313.67
2022-08-20T00:30:02.907Z,99312.05
2022-08-20T00:30:12.927Z,99313.17
2022-08-20T00:30:22.957Z,99314.23
2022-08-20T00:30:32.839Z,99314.74
2022-08-20T00:30:42.923Z,99315.94
2022-08-20T00:30:52.871Z,99315.25
2022-08-20T00:31:02.914Z,99315.19
2022-08-20T00:31:12.839Z,99316.11
2022-08-20T00:31:22.872Z,99316.53
2022-08-20T00:31:32.910Z,99315.41
2022-08-20T00:31:42.915Z,99316.11
2022-08-20T00:31:52.931Z,99318.77
2022-08-20T00:32:02.904Z,99315.02
2022-08-20T00:32:12.877Z,99319.22
2022-08-20T00:32:22.889Z,99316.95
2022-08-20T00:32:32.921Z,99316.03
2022-08-20T00:32:42.921Z,99315.08
2022-08-20T00:32:52.874Z,99314.69
2022-08-20T00:33:02.919Z,99315.35
2022-08-20T00:33:12.959Z,99316.76
2022-08-20T00:33:22.962Z,99320.11
2022-08-20T00:33:32.846Z,99313.98
2022-08-20T00:33:42.894Z,99317.84
2022-08-20T00:33:52.859Z,99316.59
2022-08-20T00:34:02.872Z,99311.20
2022-08-20T00:34:12.908Z,99312.23
2022-08-20T00:34:22.849Z,99311.55
2022-08-20T00:34:32.861Z,99316.25
2022-08-20T00:34:42.887Z,99318.09
2022-08-20T00:34:52.909Z,99314.16
2022-08-20T00:35:02.878Z,99314.24
2022-08-20T00:35:13.165Z,99316.20
2022-08-20T00:35:22.949Z,99314.58
2022-08-20T00:35:32.966Z,99314.06
2022-08-20T00:35:42.917Z,99311.89
2022-08-20T00:35:52.944Z,99314.41
2022-08-20T00:36:02.840Z,99313.98
2022-08-20T00:36:12.901Z,99311.80
2022-08-20T00:36:30.100Z,99313.23
2022-08-20T00:36:33.148Z,99311.63
2022-08-20T00:36:42.854Z,99314.23
2022-08-20T00:36:52.856Z,99312.05
2022-08-20T00:37:02.943Z,99314.58
2022-08-20T00:37:12.943Z,99314.91
2022-08-20T00:37:22.895Z,99313.91
2022-08-20T00:37:32.882Z,99319.20
2022-08-20T00:37:42.894Z,99313.12
2022-08-20T00:37:54.609Z,99311.36
2022-08-20T00:38:03.061Z,99309.88
2022-08-20T00:38:12.962Z,99313.29
2022-08-20T00:38:22.875Z,99312.88
2022-08-20T00:38:32.889Z,99313.46
2022-08-20T00:38:42.968Z,99312.20
2022-08-20T00:38:52.953Z,99311.53
2022-08-20T00:39:02.931Z,99311.95
2022-08-20T00:39:12.971Z,99313.23
2022-08-20T00:39:22.893Z,99312.88
2022-08-20T00:39:32.891Z,99307.80
2022-08-20T00:39:42.996Z,99313.38
2022-08-20T00:39:53.009Z,99312.88
2022-08-20T00:40:02.965Z,99311.36
2022-08-20T00:40:22.935Z,99313.04
2022-08-20T00:40:23.287Z,99313.70
2022-08-20T00:40:32.974Z,99310.35
2022-08-20T00:40:42.931Z,99308.23
2022-08-20T00:40:52.912Z,99311.42
2022-08-20T00:41:02.875Z,99312.17
2022-08-20T00:41:12.909Z,99312.84
2022-08-20T00:41:22.939Z,99310.33
2022-08-20T00:41:32.848Z,99316.04
2022-08-20T00:41:42.860Z,99309.83
2022-08-20T00:41:52.895Z,99310.30
2022-08-20T00:42:02.946Z,99312.32
2022-08-20T00:42:12.960Z,99311.34
2022-08-20T00:42:22.960Z,99310.30
2022-08-20T00:42:32.880Z,99310.55
2022-08-20T00:42:42.873Z,99312.99
2022-08-20T00:42:52.964Z,99312.02
2022-08-20T00:43:02.913Z,99316.38
2022-08-20T00:43:12.902Z,99310.47
2022-08-20T00:43:22.913Z,99308.09
2022-08-20T00:43:32.919Z,99309.44
2022-08-20T00:43:42.863Z,99310.95
2022-08-20T00:43:52.912Z,99312.13
2022-08-20T00:44:02.921Z,99310.45
2022-08-20T00:44:12.961Z,99310.95
2022-08-20T00:44:22.892Z,99306.92
2022-08-20T00:44:32.919Z,99308.94
2022-08-20T00:44:42.955Z,99309.44
2022-08-20T00:44:52.867Z,99310.62
2022-08-20T00:45:02.908Z,99311.10
2022-08-20T00:45:12.892Z,99312.19
2022-08-20T00:45:22.968Z,99312.64
2022-08-20T00:45:32.867Z,99310.34
2022-08-20T00:45:42.924Z,99305.20
2022-08-20T00:45:52.852Z,99305.28
2022-08-20T00:46:02.926Z,99307.04
2022-08-20T00:46:12.970Z,99306.70
2022-08-20T00:46:22.876Z,99310.59
2022-08-20T00:46:32.918Z,99308.55
2022-08-20T00:46:42.898Z,99308.41
2022-08-20T00:46:52.924Z,99309.42
2022-08-20T00:47:02.950Z,99308.50
2022-08-20T00:47:12.872Z,99308.55
2022-08-20T00:47:22.939Z,99306.88
2022-08-20T00:47:32.953Z,99310.42
2022-08-20T00:47:50.883Z,99309.75
2022-08-20T00:47:52.835Z,99306.03
2022-08-20T00:48:02.837Z,99311.86
2022-08-20T00:48:12.883Z,99308.38
2022-08-20T00:48:22.914Z,99312.11
2022-08-20T00:48:32.859Z,99308.05
2022-08-20T00:48:42.880Z,99307.99
2022-08-20T00:48:52.858Z,99311.75
2022-08-20T00:49:02.947Z,99307.32
2022-08-20T00:49:12.916Z,99304.52
2022-08-20T00:49:22.939Z,99307.21
2022-08-20T00:49:32.854Z,99314.38
2022-08-20T00:49:42.903Z,99311.19
2022-08-20T00:49:52.839Z,99310.91
2022-08-20T00:50:02.839Z,99309.05
2022-08-20T00:50:12.905Z,99313.45
2022-08-20T00:50:22.910Z,99314.80
2022-08-20T00:50:32.905Z,99308.66
2022-08-20T00:50:42.953Z,99311.27
2022-08-20T00:50:52.953Z,99309.50
2022-08-20T00:51:02.946Z,99309.00
2022-08-20T00:51:12.942Z,99306.81
2022-08-20T00:51:22.966Z,99309.08
2022-08-20T00:51:32.891Z,99311.02
2022-08-20T00:51:42.965Z,99310.77
2022-08-20T00:51:52.925Z,99312.78
2022-08-20T00:52:02.929Z,99309.73
2022-08-20T00:52:12.906Z,99310.16
2022-08-20T00:52:22.930Z,99309.25
2022-08-20T00:52:32.937Z,99311.27
2022-08-20T00:52:42.904Z,99312.11
2022-08-20T00:52:52.966Z,99309.34
2022-08-20T00:53:02.958Z,99313.95
2022-08-20T00:53:12.850Z,99308.38
2022-08-20T00:53:22.958Z,99312.53
2022-08-20T00:53:32.952Z,99309.92
2022-08-20T00:53:42.917Z,99312.19
2022-08-20T00:53:52.939Z,99310.93
2022-08-20T00:54:02.858Z,99312.52
2022-08-20T00:54:12.882Z,99311.02
2022-08-20T00:54:22.962Z,99311.75
2022-08-20T00:54:32.883Z,99313.37
2022-08-20T00:54:42.923Z,99310.77
2022-08-20T00:54:52.930Z,99306.53
2022-08-20T00:55:02.899Z,99309.92
2022-08-20T00:55:12.933Z,99309.59
2022-08-20T00:55:22.957Z,99307.16
2022-08-20T00:55:32.873Z,99307.82
2022-08-20T00:55:42.918Z,99305.39
2022-08-20T00:55:52.852Z,99309.00
2022-08-20T00:56:02.907Z,99306.81
2022-08-20T00:56:12.873Z,99303.80
2022-08-20T00:56:22.872Z,99304.86
2022-08-20T00:56:32.914Z,99306.56
2022-08-20T00:56:42.927Z,99302.50
2022-08-20T00:56:52.865Z,99308.02
2022-08-20T00:57:02.884Z,99302.87
2022-08-20T00:57:12.891Z,99306.34
2022-08-20T00:57:22.950Z,99305.58
2022-08-20T00:57:56.767Z,99305.47
2022-08-20T00:57:58.902Z,99306.14
2022-08-20T00:58:00.750Z,99303.18
2022-08-20T00:58:03.541Z,99307.48
2022-08-20T00:58:12.940Z,99307.93
2022-08-20T00:58:22.864Z,99306.53
2022-08-20T00:58:32.887Z,99303.88
2022-08-20T00:58:42.882Z,99301.83
2022-08-20T00:58:52.890Z,99304.47
2022-08-20T00:59:02.832Z,99305.02
2022-08-20T00:59:12.894Z,99302.34
2022-08-20T00:59:22.951Z,99300.48
2022-08-20T00:59:32.878Z,99297.39
2022-08-20T00:59:42.861Z,99298.56
2022-08-20T00:59:52.924Z,99298.65
2022-08-20T01:00:02.841Z,99299.66
2022-08-20T01:00:12.843Z,99296.80
2022-08-20T01:00:22.916Z,99296.46
2022-08-20T01:00:32.917Z,99297.72
2022-08-20T01:00:42.897Z,99299.41
2022-08-20T01:00:52.917Z,99295.01
2022-08-20T01:01:02.940Z,99298.39
2022-08-20T01:01:12.905Z,99298.65
2022-08-20T01:01:23.001Z,99299.31
2022-08-20T01:01:32.911Z,99295.59
2022-08-20T01:01:55.526Z,99294.08
2022-08-20T01:01:55.616Z,99296.09
2022-08-20T01:02:02.936Z,99293.41
2022-08-20T01:02:12.899Z,99300.12
2022-08-20T01:02:22.854Z,99295.27
2022-08-20T01:02:32.955Z,99298.88
2022-08-20T01:02:42.866Z,99296.69
2022-08-20T01:02:52.875Z,99295.52
2022-08-20T01:03:02.946Z,99298.03
2022-08-20T01:03:12.961Z,99292.72
2022-08-20T01:03:22.915Z,99291.09
2022-08-20T01:03:32.835Z,99292.72
2022-08-20T01:03:42.932Z,99291.73
2022-08-20T01:03:52.923Z,99292.55
2022-08-20T01:04:02.979Z,99293.83
2022-08-20T01:04:12.862Z,99290.92
2022-08-20T01:04:22.856Z,99292.22
2022-08-20T01:04:32.880Z,99295.57
2022-08-20T01:04:42.872Z,99293.45
2022-08-20T01:04:52.837Z,99294.30
2022-08-20T01:05:02.865Z,99295.24
2022-08-20T01:05:12.918Z,99289.48
2022-08-20T01:05:22.901Z,99295.38
2022-08-20T01:05:32.852Z,99295.30
2022-08-20T01:05:42.943Z,99292.11
2022-08-20T01:05:52.842Z,99293.28
2022-08-20T01:06:02.861Z,99292.34
2022-08-20T01:06:12.864Z,99294.86
2022-08-20T01:06:22.871Z,99294.62
2022-08-20T01:06:32.909Z,99291.41
2022-08-20T01:06:42.936Z,99290.49
2022-08-20T01:06:52.965Z,99290.49
2022-08-20T01:07:02.861Z,99290.80
2022-08-20T01:07:12.877Z,99291.55
2022-08-20T01:07:22.887Z,99290.80
2022-08-20T01:07:32.942Z,99292.39
2022-08-20T01:07:42.925Z,99288.11
2022-08-20T01:07:52.958Z,99290.38
2022-08-20T01:08:02.962Z,99291.62
2022-08-20T01:08:12.952Z,99290.94
2022-08-20T01:08:22.891Z,99288.09
2022-08-20T01:08:32.895Z,99289.10
2022-08-20T01:08:42.908Z,99289.86
2022-08-20T01:08:52.896Z,99289.83
2022-08-20T01:09:02.930Z,99286.05
2022-08-20T01:09:12.909Z,99290.08
2022-08-20T01:09:49.390Z,99293.11
2022-08-20T01:09:49.720Z,99290.25
2022-08-20T01:09:57.562Z,99287.65
2022-08-20T01:09:59.207Z,99292.07
2022-08-20T01:10:02.867Z,99288.97
2022-08-20T01:10:12.870Z,99290.56
2022-08-20T01:10:22.912Z,99290.06
2022-08-20T01:10:32.938Z,99290.70
2022-08-20T01:10:42.963Z,99291.38
2022-08-20T01:10:52.897Z,99288.02
2022-08-20T01:11:02.896Z,99288.95
2022-08-20T01:11:12.903Z,99288.33
2022-08-20T01:11:22.961Z,99289.09
2022-08-20T01:11:36.988Z,99288.34
2022-08-20T01:11:42.876Z,99289.17
2022-08-20T01:11:52.896Z,99292.53
2022-08-20T01:12:02.857Z,99288.50
2022-08-20T01:12:12.867Z,99288.56
2022-08-20T01:12:22.866Z,99290.33
2022-08-20T01:12:32.930Z,99287.80
2022-08-20T01:12:42.962Z,99290.12
2022-08-20T01:12:58.957Z,99291.05
2022-08-20T01:13:02.966Z,99288.45
2022-08-20T01:13:12.964Z,99288.27
2022-08-20T01:13:22.834Z,99288.93
2022-08-20T01:13:32.871Z,99291.78
2022-08-20T01:13:42.947Z,99291.77
2022-08-20T01:13:52.887Z,99296.91
2022-08-20T01:14:02.900Z,99293.11
2022-08-20T01:14:12.869Z,99292.23
2022-08-20T01:14:22.914Z,99292.83
2022-08-20T01:14:32.942Z,99293.42
2022-08-20T01:14:42.857Z,99296.44
2022-08-20T01:14:52.834Z,99294.77
2022-08-20T01:15:02.871Z,99297.09
2022-08-20T01:15:12.871Z,99296.84
2022-08-20T01:15:22.964Z,99296.83
2022-08-20T01:15:32.857Z,99294.88
2022-08-20T01:15:43.536Z,99297.23
2022-08-20T01:15:52.942Z,99293.03
2022-08-20T01:16:02.942Z,99293.79
2022-08-20T01:16:12.933Z,99295.27
2022-08-20T01:16:22.950Z,99292.92
2022-08-20T01:16:32.839Z,99293.93
2022-08-20T01:16:42.837Z,99294.19
2022-08-20T01:16:52.919Z,99294.33
2022-08-20T01:17:02.885Z,99295.50
2022-08-20T01:17:12.906Z,99297.34
2022-08-20T01:17:22.919Z,99298.36
2022-08-20T01:17:32.941Z,99295.39
2022-08-20T01:17:42.945Z,99296.98
2022-08-20T01:17:52.969Z,99299.53
2022-08-20T01:18:02.876Z,99300.52
2022-08-20T01:18:12.932Z,99298.08
2022-08-20T01:18:22.929Z,99299.77
2022-08-20T01:18:32.946Z,99303.12
2022-08-20T01:18:42.863Z,99298.22
2022-08-20T01:18:52.888Z,99299.15
2022-08-20T01:19:02.838Z,99298.81
2022-08-20T01:19:29.349Z,99298.64
2022-08-20T01:19:30.085Z,99299.20
2022-08-20T01:19:32.850Z,99301.98
2022-08-20T01:19:42.964Z,99301.64
2022-08-20T01:19:52.885Z,99301.38
2022-08-20T01:20:02.864Z,99303.32
2022-08-20T01:20:12.913Z,99301.73
2022-08-20T01:20:22.940Z,99300.36
2022-08-20T01:20:32.944Z,99303.47
2022-08-20T01:20:42.861Z,99301.61
2022-08-20T01:20:52.874Z,99306.51
2022-08-20T01:21:02.907Z,99302.17
2022-08-20T01:21:12.851Z,99305.62
2022-08-20T01:21:22.843Z,99304.98
2022-08-20T01:21:32.907Z,99305.98
2022-08-20T01:21:45.848Z,99305.95
2022-08-20T01:21:52.877Z,99302.94
2022-08-20T01:22:02.923Z,99303.41
2022-08-20T01:22:12.894Z,99302.77
2022-08-20T01:22:22.971Z,99306.29
2022-08-20T01:22:32.895Z,99302.32
2022-08-20T01:22:42.871Z,99301.91
2022-08-20T01:22:52.960Z,99307.63
2022-08-20T01:23:02.892Z,99305.14
2022-08-20T01:23:12.905Z,99305.76
2022-08-20T01:23:22.916Z,99303.58
2022-08-20T01:23:32.916Z,99307.12
2022-08-20T01:23:42.904Z,99303.92
2022-08-20T01:23:52.967Z,99303.05
2022-08-20T01:24:02.872Z,99304.75
2022-08-20T01:24:12.892Z,99305.59
2022-08-20T01:24:22.940Z,99302.32
2022-08-20T01:24:32.897Z,99304.48
2022-08-20T01:24:42.938Z,99304.00
2022-08-20T01:24:52.857Z,99305.06
2022-08-20T01:25:02.961Z,99302.72
2022-08-20T01:25:12.939Z,99306.49
2022-08-20T01:25:23.933Z,99303.92
2022-08-20T01:25:32.896Z,99306.27
2022-08-20T01:25:42.922Z,99305.73
2022-08-20T01:25:52.934Z,99304.48
2022-08-20T01:26:02.871Z,99305.66
2022-08-20T01:26:12.921Z,99303.98
2022-08-20T01:26:22.946Z,99304.56
2022-08-20T01:26:32.901Z,99308.73
2022-08-20T01:26:42.921Z,99305.88
2022-08-20T01:26:52.920Z,99303.95
2022-08-20T01:27:02.936Z,99306.97
2022-08-20T01:27:12.867Z,99308.98
2022-08-20T01:27:22.909Z,99307.45
2022-08-20T01:27:33.685Z,99307.73
2022-08-20T01:27:43.061Z,99308.62
2022-08-20T01:27:55.275Z,99308.71
2022-08-20T01:28:02.941Z,99306.86
2022-08-20T01:28:12.847Z,99305.21
2022-08-20T01:28:22.941Z,99310.75
2022-08-20T01:28:32.959Z,99310.41
2022-08-20T01:28:42.846Z,99308.23
2022-08-20T01:28:52.927Z,99305.44
2022-08-20T01:29:02.876Z,99307.89
2022-08-20T01:29:12.851Z,99311.50
2022-08-20T01:29:22.877Z,99307.81
2022-08-20T01:29:32.925Z,99312.77
2022-08-20T01:29:42.941Z,99307.03
2022-08-20T01:29:52.833Z,99305.04
2022-08-20T01:30:06.819Z,99306.19
2022-08-20T01:30:12.953Z,99308.12
2022-08-20T01:30:22.869Z,99311.76
2022-08-20T01:30:32.877Z,99305.04
2022-08-20T01:30:42.924Z,99309.74
2022-08-20T01:30:52.895Z,99310.55
2022-08-20T01:31:02.950Z,99310.08
2022-08-20T01:31:12.957Z,99312.59
2022-08-20T01:31:22.881Z,99308.96
2022-08-20T01:31:32.894Z,99310.22
2022-08-20T01:31:42.945Z,99311.81
2022-08-20T01:31:52.842Z,99309.62
2022-08-20T01:32:02.841Z,99312.41
2022-08-20T01:32:12.855Z,99309.05
2022-08-20T01:32:22.941Z,99310.69
2022-08-20T01:32:32.873Z,99310.02
2022-08-20T01:32:42.880Z,99311.90
2022-08-20T01:32:52.892Z,99311.90
2022-08-20T01:33:02.850Z,99311.28
2022-08-20T01:33:12.921Z,99307.67
2022-08-20T01:33:22.924Z,99307.95
2022-08-20T01:33:32.975Z,99311.31
2022-08-20T01:33:42.930Z,99312.48
2022-08-20T01:33:53.032Z,99311.05
2022-08-20T01:34:02.943Z,99312.91
2022-08-20T01:34:12.935Z,99312.06
2022-08-20T01:34:23.028Z,99310.72
2022-08-20T01:34:32.948Z,99311.14
2022-08-20T01:34:42.926Z,99309.91
2022-08-20T01:34:52.964Z,99312.59
2022-08-20T01:35:02.904Z,99305.86
2022-08-20T01:35:12.888Z,99315.61
2022-08-20T01:35:22.894Z,99312.77
2022-08-20T01:35:32.960Z,99309.99
2022-08-20T01:35:42.845Z,99308.06
2022-08-20T01:35:52.889Z,99311.19
2022-08-20T01:36:02.847Z,99312.38
2022-08-20T01:36:12.968Z,99309.91
2022-08-20T01:36:22.871Z,99307.22
2022-08-20T01:36:32.912Z,99306.72
2022-08-20T01:36:46.130Z,99310.08
2022-08-20T01:36:52.916Z,99307.45
2022-08-20T01:37:02.907Z,99307.89
2022-08-20T01:37:12.961Z,99308.28
2022-08-20T01:37:22.913Z,99311.28
2022-08-20T01:37:32.879Z,99309.01
2022-08-20T01:37:42.885Z,99307.61
2022-08-20T01:37:52.903Z,99303.55
2022-08-20T01:38:02.920Z,99308.50
2022-08-20T01:38:12.925Z,99305.32
2022-08-20T01:38:22.836Z,99307.16
2022-08-20T01:38:32.875Z,99302.88
2022-08-20T01:38:54.225Z,99304.56
2022-08-20T01:38:54.524Z,99305.09
2022-08-20T01:39:02.957Z,99305.43
2022-08-20T01:39:12.873Z,99300.45
2022-08-20T01:39:22.946Z,99301.38
2022-08-20T01:39:32.927Z,99301.29
2022-08-20T01:39:42.905Z,99301.54
2022-08-20T01:39:52.954Z,99306.83
2022-08-20T01:40:02.903Z,99302.38
2022-08-20T01:40:12.991Z,99303.25
2022-08-20T01:40:22.869Z,99301.70
2022-08-20T01:40:32.956Z,99301.29
2022-08-20T01:40:42.907Z,99297.59
2022-08-20T01:40:52.930Z,99300.78
2022-08-20T01:41:02.959Z,99298.94
2022-08-20T01:41:12.869Z,99299.39
2022-08-20T01:41:28.430Z,99299.44
2022-08-20T01:41:32.844Z,99298.02
2022-08-20T01:41:42.841Z,99300.03
2022-08-20T01:41:52.883Z,99300.39
2022-08-20T01:42:02.945Z,99300.22
2022-08-20T01:42:12.895Z,99300.36
2022-08-20T01:42:22.913Z,99298.85
2022-08-20T01:42:32.930Z,99301.70
2022-08-20T01:42:53.976Z,99299.53
2022-08-20T01:42:59.399Z,99295.08
2022-08-20T01:43:03.054Z,99298.02
2022-08-20T01:43:12.962Z,99300.05
2022-08-20T01:43:22.890Z,99296.08
2022-08-20T01:43:37.009Z,99300.05
2022-08-20T01:43:42.868Z,99299.72
2022-08-20T01:43:52.966Z,99297.70
2022-08-20T01:44:02.875Z,99301.31
2022-08-20T01:44:16.029Z,99295.52
2022-08-20T01:44:22.852Z,99292.55
2022-08-20T01:44:32.939Z,99297.88
2022-08-20T01:44:42.967Z,99298.34
2022-08-20T01:44:52.947Z,99299.55
2022-08-20T01:45:04.378Z,99304.84
2022-08-20T01:45:12.870Z,99297.52
2022-08-20T01:45:26.905Z,99298.38
2022-08-20T01:45:32.872Z,99298.71
2022-08-20T01:45:42.932Z,99300.39
2022-08-20T01:45:52.864Z,99301.23
2022-08-20T01:46:04.124Z,99303.41
2022-08-20T01:46:12.880Z,99301.91
2022-08-20T01:46:22.914Z,99301.06
2022-08-20T01:46:32.844Z,99298.71
2022-08-20T01:46:44.162Z,99298.88
2022-08-20T01:46:52.936Z,99301.48
2022-08-20T01:47:02.860Z,99301.41
2022-08-20T01:47:12.870Z,99300.78
2022-08-20T01:47:22.884Z,99299.10
2022-08-20T01:47:35.378Z,99302.07
2022-08-20T01:47:42.918Z,99301.80
2022-08-20T01:47:52.850Z,99299.36
2022-08-20T01:48:02.901Z,99298.94
2022-08-20T01:48:12.979Z,99303.41
2022-08-20T01:48:22.885Z,99304.78
2022-08-20T01:48:32.869Z,99301.06
2022-08-20T01:48:42.928Z,99303.77
2022-08-20T01:48:52.955Z,99303.52
2022-08-20T01:49:02.956Z,99302.07
2022-08-20T01:49:13.704Z,99298.55
2022-08-20T01:49:23.588Z,99297.70
2022-08-20T01:49:32.883Z,99300.90
2022-08-20T01:49:42.935Z,99304.27
2022-08-20T01:49:52.841Z,99305.95
2022-08-20T01:50:02.863Z,99303.83
2022-08-20T01:50:12.895Z,99300.39
2022-08-20T01:50:22.970Z,99305.28
2022-08-20T01:50:32.839Z,99302.57
2022-08-20T01:50:42.886Z,99301.42
2022-08-20T01:50:52.960Z,99298.20
2022-08-20T01:51:02.836Z,99297.88
2022-08-20T01:51:12.858Z,99297.70
2022-08-20T01:51:22.863Z,99298.06
2022-08-20T01:51:32.909Z,99300.75
2022-08-20T01:51:42.852Z,99294.17
2022-08-20T01:51:52.913Z,99299.74
2022-08-20T01:52:02.862Z,99298.66
2022-08-20T01:52:12.836Z,99297.56
2022-08-20T01:52:22.936Z,99297.05
2022-08-20T01:52:32.913Z,99297.47
2022-08-20T01:52:42.931Z,99295.60
2022-08-20T01:52:52.911Z,99297.56
2022-08-20T01:53:02.837Z,99294.88
2022-08-20T01:53:12.958Z,99296.22
2022-08-20T01:53:22.949Z,99295.38
2022-08-20T01:53:32.885Z,99297.76
2022-08-20T01:53:42.966Z,99294.54
2022-08-20T01:53:52.966Z,99294.70
2022-08-20T01:54:02.938Z,99293.20
2022-08-20T01:54:12.836Z,99296.47
2022-08-20T01:54:22.966Z,99294.12
2022-08-20T01:54:32.930Z,99295.38
2022-08-20T01:54:42.833Z,99291.49
2022-08-20T01:54:52.911Z,99293.70
2022-08-20T01:55:02.912Z,99294.20
2022-08-20T01:55:12.931Z,99295.30
2022-08-20T01:55:22.926Z,99293.53
2022-08-20T01:55:32.966Z,99292.66
2022-08-20T01:55:42.901Z,99292.52
2022-08-20T01:55:52.901Z,99293.09
2022-08-20T01:56:02.906Z,99294.88
2022-08-20T01:56:12.899Z,99293.45
2022-08-20T01:56:22.856Z,99289.34
2022-08-20T01:56:32.884Z,99293.22
2022-08-20T01:56:42.846Z,99296.22
2022-08-20T01:56:52.856Z,99296.89
2022-08-20T01:57:02.860Z,99294.88
2022-08-20T01:57:12.963Z,99293.53
2022-08-20T01:57:22.835Z,99288.89